sensor_id;sensor_type;location;lat;lon;timestamp;P1;durP1;ratioP1;P2;durP2;ratioP2
59093;SDS011;44880;52.814;18.270;2023-07-22T00:04:42;8.00;;;2.70;;
59093;SDS011;44880;52.814;18.270;2023-07-22T00:07:13;7.20;;;3.00;;
59093;SDS011;44880;52.814;18.270;2023-07-22T00:09:45;7.60;;;2.80;;
59093;SDS011;44880;52.814;18.270;2023-07-22T00:12:18;8.40;;;3.70;;
59093;SDS011;44880;52.814;18.270;2023-07-22T00:14:53;8.00;;;3.40;;
59093;SDS011;44880;52.814;18.270;2023-07-22T00:17:25;7.40;;;3.00;;
59093;SDS011;44880;52.814;18.270;2023-07-22T00:19:58;7.40;;;3.00;;
59093;SDS011;44880;52.814;18.270;2023-07-22T00:22:29;7.90;;;2.70;;
59093;SDS011;44880;52.814;18.270;2023-07-22T00:25:01;8.30;;;3.10;;
59093;SDS011;44880;52.814;18.270;2023-07-22T00:27:33;7.00;;;2.70;;
59093;SDS011;44880;52.814;18.270;2023-07-22T00:30:06;8.30;;;3.10;;
59093;SDS011;44880;52.814;18.270;2023-07-22T00:32:39;7.90;;;3.00;;
59093;SDS011;44880;52.814;18.270;2023-07-22T00:35:11;8.40;;;3.20;;
59093;SDS011;44880;52.814;18.270;2023-07-22T00:40:14;8.10;;;3.30;;
59093;SDS011;44880;52.814;18.270;2023-07-22T00:42:46;7.70;;;2.70;;
59093;SDS011;44880;52.814;18.270;2023-07-22T00:45:18;8.00;;;2.80;;
59093;SDS011;44880;52.814;18.270;2023-07-22T00:47:50;7.30;;;3.00;;
59093;SDS011;44880;52.814;18.270;2023-07-22T00:50:22;7.70;;;3.10;;
59093;SDS011;44880;52.814;18.270;2023-07-22T00:52:55;7.60;;;2.60;;
59093;SDS011;44880;52.814;18.270;2023-07-22T00:55:27;8.80;;;2.90;;
59093;SDS011;44880;52.814;18.270;2023-07-22T00:57:59;8.00;;;2.80;;
59093;SDS011;44880;52.814;18.270;2023-07-22T01:00:31;8.30;;;3.40;;
59093;SDS011;44880;52.814;18.270;2023-07-22T01:03:02;7.40;;;3.00;;
59093;SDS011;44880;52.814;18.270;2023-07-22T01:05:36;8.30;;;3.20;;
59093;SDS011;44880;52.814;18.270;2023-07-22T01:08:09;7.10;;;2.70;;
59093;SDS011;44880;52.814;18.270;2023-07-22T01:10:41;7.40;;;2.70;;
59093;SDS011;44880;52.814;18.270;2023-07-22T01:13:13;6.50;;;2.80;;
59093;SDS011;44880;52.814;18.270;2023-07-22T01:15:44;11.70;;;3.50;;
59093;SDS011;44880;52.814;18.270;2023-07-22T01:18:17;7.90;;;3.40;;
59093;SDS011;44880;52.814;18.270;2023-07-22T01:20:48;8.50;;;3.00;;
59093;SDS011;44880;52.814;18.270;2023-07-22T01:23:20;7.70;;;3.30;;
59093;SDS011;44880;52.814;18.270;2023-07-22T01:25:52;7.60;;;3.20;;
59093;SDS011;44880;52.814;18.270;2023-07-22T01:28:23;8.00;;;3.00;;
59093;SDS011;44880;52.814;18.270;2023-07-22T01:30:55;8.60;;;3.40;;
59093;SDS011;44880;52.814;18.270;2023-07-22T01:33:27;8.30;;;3.60;;
59093;SDS011;44880;52.814;18.270;2023-07-22T01:35:59;7.60;;;3.30;;
59093;SDS011;44880;52.814;18.270;2023-07-22T01:38:32;9.10;;;3.40;;
59093;SDS011;44880;52.814;18.270;2023-07-22T01:41:04;9.60;;;3.30;;
59093;SDS011;44880;52.814;18.270;2023-07-22T01:43:36;7.40;;;3.10;;
59093;SDS011;44880;52.814;18.270;2023-07-22T01:46:07;8.90;;;3.40;;
59093;SDS011;44880;52.814;18.270;2023-07-22T01:48:40;8.60;;;3.50;;
59093;SDS011;44880;52.814;18.270;2023-07-22T01:51:12;9.60;;;3.40;;
59093;SDS011;44880;52.814;18.270;2023-07-22T01:53:44;9.70;;;3.30;;
59093;SDS011;44880;52.814;18.270;2023-07-22T01:56:16;9.70;;;2.90;;
59093;SDS011;44880;52.814;18.270;2023-07-22T01:58:48;7.30;;;3.00;;
59093;SDS011;44880;52.814;18.270;2023-07-22T02:01:20;10.20;;;3.20;;
59093;SDS011;44880;52.814;18.270;2023-07-22T02:03:52;8.80;;;3.30;;
59093;SDS011;44880;52.814;18.270;2023-07-22T02:06:24;8.50;;;3.10;;
59093;SDS011;44880;52.814;18.270;2023-07-22T02:08:57;9.00;;;3.30;;
59093;SDS011;44880;52.814;18.270;2023-07-22T02:11:34;7.90;;;2.90;;
59093;SDS011;44880;52.814;18.270;2023-07-22T02:14:06;8.00;;;2.90;;
59093;SDS011;44880;52.814;18.270;2023-07-22T02:16:38;8.30;;;3.20;;
59093;SDS011;44880;52.814;18.270;2023-07-22T02:19:09;9.30;;;3.20;;
59093;SDS011;44880;52.814;18.270;2023-07-22T02:21:44;8.90;;;3.40;;
59093;SDS011;44880;52.814;18.270;2023-07-22T02:26:46;9.10;;;3.40;;
59093;SDS011;44880;52.814;18.270;2023-07-22T02:29:18;8.40;;;3.40;;
59093;SDS011;44880;52.814;18.270;2023-07-22T02:31:50;9.30;;;3.10;;
59093;SDS011;44880;52.814;18.270;2023-07-22T02:34:21;11.60;;;3.90;;
59093;SDS011;44880;52.814;18.270;2023-07-22T02:36:53;8.10;;;3.40;;
59093;SDS011;44880;52.814;18.270;2023-07-22T02:39:25;10.70;;;3.30;;
59093;SDS011;44880;52.814;18.270;2023-07-22T02:41:56;8.50;;;3.30;;
59093;SDS011;44880;52.814;18.270;2023-07-22T02:44:28;9.50;;;3.60;;
59093;SDS011;44880;52.814;18.270;2023-07-22T02:46:59;9.60;;;3.70;;
59093;SDS011;44880;52.814;18.270;2023-07-22T02:49:31;9.60;;;3.70;;
59093;SDS011;44880;52.814;18.270;2023-07-22T02:52:04;11.60;;;3.80;;
59093;SDS011;44880;52.814;18.270;2023-07-22T02:57:08;11.40;;;3.20;;
59093;SDS011;44880;52.814;18.270;2023-07-22T02:59:40;8.40;;;3.30;;
59093;SDS011;44880;52.814;18.270;2023-07-22T03:02:12;8.00;;;3.20;;
59093;SDS011;44880;52.814;18.270;2023-07-22T03:04:44;8.80;;;3.70;;
59093;SDS011;44880;52.814;18.270;2023-07-22T03:07:15;9.70;;;3.80;;
59093;SDS011;44880;52.814;18.270;2023-07-22T03:09:48;7.80;;;3.40;;
59093;SDS011;44880;52.814;18.270;2023-07-22T03:12:20;8.00;;;3.80;;
59093;SDS011;44880;52.814;18.270;2023-07-22T03:14:52;8.90;;;3.70;;
59093;SDS011;44880;52.814;18.270;2023-07-22T03:17:24;9.50;;;3.80;;
59093;SDS011;44880;52.814;18.270;2023-07-22T03:19:56;8.30;;;3.70;;
59093;SDS011;44880;52.814;18.270;2023-07-22T03:22:27;8.40;;;3.60;;
59093;SDS011;44880;52.814;18.270;2023-07-22T03:24:59;7.70;;;3.30;;
59093;SDS011;44880;52.814;18.270;2023-07-22T03:30:29;8.90;;;3.80;;
59093;SDS011;44880;52.814;18.270;2023-07-22T03:36:51;8.20;;;3.90;;
59093;SDS011;44880;52.814;18.270;2023-07-22T03:39:23;11.50;;;3.70;;
59093;SDS011;44880;52.814;18.270;2023-07-22T03:41:54;9.40;;;4.20;;
59093;SDS011;44880;52.814;18.270;2023-07-22T03:44:32;8.50;;;3.80;;
59093;SDS011;44880;52.814;18.270;2023-07-22T03:47:04;8.00;;;3.70;;
59093;SDS011;44880;52.814;18.270;2023-07-22T03:49:36;10.70;;;3.50;;
59093;SDS011;44880;52.814;18.270;2023-07-22T03:52:08;8.30;;;3.70;;
59093;SDS011;44880;52.814;18.270;2023-07-22T03:54:53;8.10;;;3.50;;
59093;SDS011;44880;52.814;18.270;2023-07-22T03:57:26;9.00;;;3.40;;
59093;SDS011;44880;52.814;18.270;2023-07-22T03:59:59;9.60;;;4.40;;
59093;SDS011;44880;52.814;18.270;2023-07-22T04:03:04;9.00;;;4.00;;
59093;SDS011;44880;52.814;18.270;2023-07-22T04:05:36;11.80;;;4.70;;
59093;SDS011;44880;52.814;18.270;2023-07-22T04:08:11;9.40;;;4.90;;
59093;SDS011;44880;52.814;18.270;2023-07-22T04:10:46;11.20;;;5.30;;
59093;SDS011;44880;52.814;18.270;2023-07-22T04:13:23;9.40;;;4.40;;
59093;SDS011;44880;52.814;18.270;2023-07-22T04:18:43;16.10;;;9.20;;
59093;SDS011;44880;52.814;18.270;2023-07-22T04:21:15;19.40;;;10.40;;
59093;SDS011;44880;52.814;18.270;2023-07-22T04:26:29;19.40;;;10.20;;
59093;SDS011;44880;52.814;18.270;2023-07-22T04:29:00;19.50;;;11.00;;
59093;SDS011;44880;52.814;18.270;2023-07-22T04:34:06;18.20;;;10.00;;
59093;SDS011;44880;52.814;18.270;2023-07-22T04:36:39;14.80;;;8.60;;
59093;SDS011;44880;52.814;18.270;2023-07-22T04:39:11;14.30;;;7.90;;
59093;SDS011;44880;52.814;18.270;2023-07-22T04:41:43;14.10;;;7.00;;
59093;SDS011;44880;52.814;18.270;2023-07-22T04:44:28;10.50;;;5.30;;
59093;SDS011;44880;52.814;18.270;2023-07-22T04:46:59;10.40;;;5.20;;
59093;SDS011;44880;52.814;18.270;2023-07-22T04:49:31;12.30;;;5.30;;
59093;SDS011;44880;52.814;18.270;2023-07-22T04:52:08;10.40;;;4.70;;
59093;SDS011;44880;52.814;18.270;2023-07-22T04:54:41;10.20;;;4.30;;
59093;SDS011;44880;52.814;18.270;2023-07-22T04:57:15;10.00;;;4.50;;
59093;SDS011;44880;52.814;18.270;2023-07-22T05:02:32;11.30;;;5.20;;
59093;SDS011;44880;52.814;18.270;2023-07-22T05:07:35;10.20;;;4.80;;
59093;SDS011;44880;52.814;18.270;2023-07-22T05:10:30;9.70;;;4.40;;
59093;SDS011;44880;52.814;18.270;2023-07-22T05:13:02;10.30;;;5.10;;
59093;SDS011;44880;52.814;18.270;2023-07-22T05:15:49;10.30;;;4.80;;
59093;SDS011;44880;52.814;18.270;2023-07-22T05:18:21;11.10;;;5.10;;
59093;SDS011;44880;52.814;18.270;2023-07-22T05:20:52;12.50;;;5.80;;
59093;SDS011;44880;52.814;18.270;2023-07-22T05:23:24;11.30;;;5.70;;
59093;SDS011;44880;52.814;18.270;2023-07-22T05:26:11;12.00;;;6.20;;
59093;SDS011;44880;52.814;18.270;2023-07-22T05:28:43;12.90;;;6.10;;
59093;SDS011;44880;52.814;18.270;2023-07-22T05:31:14;10.90;;;5.60;;
59093;SDS011;44880;52.814;18.270;2023-07-22T05:34:01;11.50;;;6.60;;
59093;SDS011;44880;52.814;18.270;2023-07-22T05:36:34;13.70;;;6.50;;
59093;SDS011;44880;52.814;18.270;2023-07-22T05:41:57;10.80;;;6.30;;
59093;SDS011;44880;52.814;18.270;2023-07-22T05:44:28;12.20;;;6.80;;
59093;SDS011;44880;52.814;18.270;2023-07-22T05:47:00;12.70;;;7.30;;
59093;SDS011;44880;52.814;18.270;2023-07-22T05:49:48;11.50;;;7.10;;
59093;SDS011;44880;52.814;18.270;2023-07-22T05:52:20;11.10;;;6.20;;
59093;SDS011;44880;52.814;18.270;2023-07-22T05:54:52;12.60;;;7.60;;
59093;SDS011;44880;52.814;18.270;2023-07-22T05:57:27;11.80;;;6.40;;
59093;SDS011;44880;52.814;18.270;2023-07-22T06:00:02;11.10;;;6.20;;
59093;SDS011;44880;52.814;18.270;2023-07-22T06:02:43;10.50;;;6.70;;
59093;SDS011;44880;52.814;18.270;2023-07-22T06:05:37;10.50;;;5.40;;
59093;SDS011;44880;52.814;18.270;2023-07-22T06:08:09;10.20;;;6.00;;
59093;SDS011;44880;52.814;18.270;2023-07-22T06:10:41;13.80;;;8.00;;
59093;SDS011;44880;52.814;18.270;2023-07-22T06:16:34;8.60;;;4.20;;
59093;SDS011;44880;52.814;18.270;2023-07-22T06:21:41;7.60;;;3.20;;
59093;SDS011;44880;52.814;18.270;2023-07-22T06:27:04;7.80;;;3.40;;
59093;SDS011;44880;52.814;18.270;2023-07-22T06:29:36;7.90;;;3.90;;
59093;SDS011;44880;52.814;18.270;2023-07-22T06:34:55;7.50;;;3.80;;
59093;SDS011;44880;52.814;18.270;2023-07-22T06:37:27;8.90;;;3.90;;
59093;SDS011;44880;52.814;18.270;2023-07-22T06:39:59;9.70;;;4.10;;
59093;SDS011;44880;52.814;18.270;2023-07-22T06:42:49;9.10;;;4.20;;
59093;SDS011;44880;52.814;18.270;2023-07-22T06:45:21;8.70;;;4.70;;
59093;SDS011;44880;52.814;18.270;2023-07-22T06:47:53;8.80;;;4.60;;
59093;SDS011;44880;52.814;18.270;2023-07-22T06:56:20;9.30;;;5.30;;
59093;SDS011;44880;52.814;18.270;2023-07-22T06:58:54;11.10;;;5.50;;
59093;SDS011;44880;52.814;18.270;2023-07-22T07:04:31;9.30;;;4.80;;
59093;SDS011;44880;52.814;18.270;2023-07-22T07:07:08;11.00;;;5.30;;
59093;SDS011;44880;52.814;18.270;2023-07-22T07:15:31;8.20;;;4.30;;
59093;SDS011;44880;52.814;18.270;2023-07-22T07:18:03;9.30;;;3.60;;
59093;SDS011;44880;52.814;18.270;2023-07-22T07:23:27;8.00;;;3.10;;
59093;SDS011;44880;52.814;18.270;2023-07-22T07:25:59;8.40;;;3.00;;
59093;SDS011;44880;52.814;18.270;2023-07-22T07:28:34;7.70;;;3.00;;
59093;SDS011;44880;52.814;18.270;2023-07-22T07:33:56;7.50;;;3.10;;
59093;SDS011;44880;52.814;18.270;2023-07-22T07:36:28;8.30;;;2.80;;
59093;SDS011;44880;52.814;18.270;2023-07-22T07:41:45;6.80;;;2.50;;
59093;SDS011;44880;52.814;18.270;2023-07-22T07:44:27;9.40;;;2.80;;
59093;SDS011;44880;52.814;18.270;2023-07-22T07:49:34;7.10;;;2.90;;
59093;SDS011;44880;52.814;18.270;2023-07-22T07:52:14;7.60;;;2.60;;
59093;SDS011;44880;52.814;18.270;2023-07-22T07:54:58;6.50;;;2.30;;
59093;SDS011;44880;52.814;18.270;2023-07-22T07:57:30;6.60;;;2.20;;
59093;SDS011;44880;52.814;18.270;2023-07-22T08:02:38;6.40;;;2.30;;
59093;SDS011;44880;52.814;18.270;2023-07-22T08:05:17;5.10;;;1.70;;
59093;SDS011;44880;52.814;18.270;2023-07-22T08:10:27;7.10;;;2.10;;
59093;SDS011;44880;52.814;18.270;2023-07-22T08:13:08;5.80;;;1.90;;
59093;SDS011;44880;52.814;18.270;2023-07-22T08:18:11;6.10;;;2.00;;
59093;SDS011;44880;52.814;18.270;2023-07-22T08:20:55;6.20;;;2.00;;
59093;SDS011;44880;52.814;18.270;2023-07-22T08:23:27;6.40;;;2.00;;
59093;SDS011;44880;52.814;18.270;2023-07-22T08:26:02;6.10;;;2.20;;
59093;SDS011;44880;52.814;18.270;2023-07-22T08:31:44;5.60;;;1.80;;
59093;SDS011;44880;52.814;18.270;2023-07-22T08:37:12;6.50;;;2.10;;
59093;SDS011;44880;52.814;18.270;2023-07-22T08:39:45;5.30;;;1.80;;
59093;SDS011;44880;52.814;18.270;2023-07-22T08:45:19;5.70;;;2.10;;
59093;SDS011;44880;52.814;18.270;2023-07-22T08:47:58;5.90;;;2.20;;
59093;SDS011;44880;52.814;18.270;2023-07-22T08:50:33;5.50;;;2.00;;
59093;SDS011;44880;52.814;18.270;2023-07-22T08:53:08;6.70;;;2.10;;
59093;SDS011;44880;52.814;18.270;2023-07-22T08:55:51;6.80;;;2.00;;
59093;SDS011;44880;52.814;18.270;2023-07-22T08:58:24;5.90;;;2.00;;
59093;SDS011;44880;52.814;18.270;2023-07-22T09:00:57;5.80;;;2.00;;
59093;SDS011;44880;52.814;18.270;2023-07-22T09:06:15;7.60;;;2.30;;
59093;SDS011;44880;52.814;18.270;2023-07-22T09:11:18;6.40;;;2.20;;
59093;SDS011;44880;52.814;18.270;2023-07-22T09:14:04;6.70;;;2.50;;
59093;SDS011;44880;52.814;18.270;2023-07-22T09:19:09;6.80;;;3.00;;
59093;SDS011;44880;52.814;18.270;2023-07-22T09:21:58;7.10;;;2.80;;
59093;SDS011;44880;52.814;18.270;2023-07-22T09:24:31;7.10;;;3.00;;
59093;SDS011;44880;52.814;18.270;2023-07-22T09:27:05;7.30;;;2.90;;
59093;SDS011;44880;52.814;18.270;2023-07-22T09:29:51;7.20;;;3.20;;
59093;SDS011;44880;52.814;18.270;2023-07-22T09:32:41;6.60;;;3.00;;
59093;SDS011;44880;52.814;18.270;2023-07-22T09:35:26;7.80;;;3.50;;
59093;SDS011;44880;52.814;18.270;2023-07-22T09:37:58;9.60;;;3.70;;
59093;SDS011;44880;52.814;18.270;2023-07-22T09:40:32;8.50;;;3.30;;
59093;SDS011;44880;52.814;18.270;2023-07-22T09:46:09;7.80;;;3.10;;
59093;SDS011;44880;52.814;18.270;2023-07-22T09:48:46;8.00;;;3.30;;
59093;SDS011;44880;52.814;18.270;2023-07-22T09:51:18;7.20;;;3.70;;
59093;SDS011;44880;52.814;18.270;2023-07-22T09:54:00;8.00;;;4.00;;
59093;SDS011;44880;52.814;18.270;2023-07-22T09:56:42;7.50;;;3.90;;
59093;SDS011;44880;52.814;18.270;2023-07-22T09:59:15;7.60;;;4.00;;
59093;SDS011;44880;52.814;18.270;2023-07-22T10:01:49;7.90;;;4.20;;
59093;SDS011;44880;52.814;18.270;2023-07-22T10:04:37;7.30;;;4.10;;
59093;SDS011;44880;52.814;18.270;2023-07-22T10:07:10;7.10;;;3.70;;
59093;SDS011;44880;52.814;18.270;2023-07-22T10:09:46;8.50;;;4.40;;
59093;SDS011;44880;52.814;18.270;2023-07-22T10:15:04;8.10;;;5.60;;
59093;SDS011;44880;52.814;18.270;2023-07-22T10:17:37;9.70;;;6.30;;
59093;SDS011;44880;52.814;18.270;2023-07-22T10:20:16;9.00;;;5.90;;
59093;SDS011;44880;52.814;18.270;2023-07-22T10:22:52;8.50;;;5.50;;
59093;SDS011;44880;52.814;18.270;2023-07-22T10:25:27;9.50;;;5.90;;
59093;SDS011;44880;52.814;18.270;2023-07-22T10:28:08;10.70;;;6.30;;
59093;SDS011;44880;52.814;18.270;2023-07-22T10:30:43;9.30;;;5.70;;
59093;SDS011;44880;52.814;18.270;2023-07-22T10:33:14;10.20;;;6.40;;
59093;SDS011;44880;52.814;18.270;2023-07-22T10:38:36;10.20;;;6.40;;
59093;SDS011;44880;52.814;18.270;2023-07-22T10:41:15;9.90;;;6.00;;
59093;SDS011;44880;52.814;18.270;2023-07-22T10:46:33;10.30;;;5.40;;
59093;SDS011;44880;52.814;18.270;2023-07-22T10:49:08;8.90;;;5.40;;
59093;SDS011;44880;52.814;18.270;2023-07-22T10:54:33;8.00;;;4.30;;
59093;SDS011;44880;52.814;18.270;2023-07-22T11:00:06;9.10;;;4.30;;
59093;SDS011;44880;52.814;18.270;2023-07-22T11:03:11;8.40;;;4.50;;
59093;SDS011;44880;52.814;18.270;2023-07-22T11:05:51;7.80;;;4.40;;
59093;SDS011;44880;52.814;18.270;2023-07-22T11:08:50;7.30;;;3.90;;
59093;SDS011;44880;52.814;18.270;2023-07-22T11:11:22;8.50;;;3.80;;
59093;SDS011;44880;52.814;18.270;2023-07-22T11:17:01;8.10;;;3.30;;
59093;SDS011;44880;52.814;18.270;2023-07-22T11:19:35;8.10;;;3.20;;
59093;SDS011;44880;52.814;18.270;2023-07-22T11:25:02;8.40;;;3.30;;
59093;SDS011;44880;52.814;18.270;2023-07-22T11:27:35;8.80;;;3.20;;
59093;SDS011;44880;52.814;18.270;2023-07-22T11:30:21;7.90;;;3.70;;
59093;SDS011;44880;52.814;18.270;2023-07-22T11:32:54;6.90;;;3.10;;
59093;SDS011;44880;52.814;18.270;2023-07-22T11:35:29;7.90;;;3.50;;
59093;SDS011;44880;52.814;18.270;2023-07-22T11:38:13;7.00;;;2.80;;
59093;SDS011;44880;52.814;18.270;2023-07-22T11:40:47;9.20;;;3.20;;
59093;SDS011;44880;52.814;18.270;2023-07-22T11:43:22;7.90;;;3.30;;
59093;SDS011;44880;52.814;18.270;2023-07-22T11:46:18;8.20;;;2.70;;
59093;SDS011;44880;52.814;18.270;2023-07-22T11:51:34;7.00;;;3.00;;
59093;SDS011;44880;52.814;18.270;2023-07-22T11:54:14;6.50;;;2.50;;
59093;SDS011;44880;52.814;18.270;2023-07-22T11:56:52;8.40;;;3.10;;
59093;SDS011;44880;52.814;18.270;2023-07-22T11:59:37;7.40;;;2.70;;
59093;SDS011;44880;52.814;18.270;2023-07-22T12:02:13;6.50;;;2.50;;
59093;SDS011;44880;52.814;18.270;2023-07-22T12:07:39;6.60;;;2.20;;
59093;SDS011;44880;52.814;18.270;2023-07-22T12:10:11;7.10;;;2.40;;
59093;SDS011;44880;52.814;18.270;2023-07-22T12:12:43;6.60;;;2.50;;
59093;SDS011;44880;52.814;18.270;2023-07-22T12:15:25;9.00;;;2.30;;
59093;SDS011;44880;52.814;18.270;2023-07-22T12:17:58;7.80;;;2.40;;
59093;SDS011;44880;52.814;18.270;2023-07-22T12:20:33;6.40;;;2.60;;
59093;SDS011;44880;52.814;18.270;2023-07-22T12:23:31;6.70;;;2.30;;
59093;SDS011;44880;52.814;18.270;2023-07-22T12:26:05;6.80;;;2.10;;
59093;SDS011;44880;52.814;18.270;2023-07-22T12:31:16;6.30;;;2.30;;
59093;SDS011;44880;52.814;18.270;2023-07-22T12:36:20;7.20;;;2.60;;
59093;SDS011;44880;52.814;18.270;2023-07-22T12:42:43;9.40;;;4.60;;
59093;SDS011;44880;52.814;18.270;2023-07-22T12:45:15;8.00;;;3.10;;
59093;SDS011;44880;52.814;18.270;2023-07-22T12:47:52;6.40;;;2.50;;
59093;SDS011;44880;52.814;18.270;2023-07-22T12:50:25;8.70;;;2.30;;
59093;SDS011;44880;52.814;18.270;2023-07-22T12:52:59;6.00;;;2.10;;
59093;SDS011;44880;52.814;18.270;2023-07-22T12:55:40;7.40;;;2.10;;
59093;SDS011;44880;52.814;18.270;2023-07-22T12:58:15;6.50;;;2.30;;
59093;SDS011;44880;52.814;18.270;2023-07-22T13:00:49;7.40;;;2.60;;
59093;SDS011;44880;52.814;18.270;2023-07-22T13:06:13;7.60;;;2.40;;
59093;SDS011;44880;52.814;18.270;2023-07-22T13:08:45;6.50;;;2.20;;
59093;SDS011;44880;52.814;18.270;2023-07-22T13:11:17;6.00;;;2.20;;
59093;SDS011;44880;52.814;18.270;2023-07-22T13:14:02;6.10;;;2.40;;
59093;SDS011;44880;52.814;18.270;2023-07-22T13:16:34;7.10;;;2.30;;
59093;SDS011;44880;52.814;18.270;2023-07-22T13:19:08;6.60;;;2.40;;
59093;SDS011;44880;52.814;18.270;2023-07-22T13:21:52;8.50;;;2.40;;
59093;SDS011;44880;52.814;18.270;2023-07-22T13:24:24;7.10;;;2.40;;
59093;SDS011;44880;52.814;18.270;2023-07-22T13:26:57;7.00;;;2.50;;
59093;SDS011;44880;52.814;18.270;2023-07-22T13:29:35;6.70;;;2.70;;
59093;SDS011;44880;52.814;18.270;2023-07-22T13:32:08;8.60;;;3.80;;
59093;SDS011;44880;52.814;18.270;2023-07-22T13:34:41;8.90;;;4.60;;
59093;SDS011;44880;52.814;18.270;2023-07-22T13:39:58;12.60;;;9.20;;
59093;SDS011;44880;52.814;18.270;2023-07-22T13:42:33;9.90;;;6.00;;
59093;SDS011;44880;52.814;18.270;2023-07-22T13:47:52;8.70;;;3.70;;
59093;SDS011;44880;52.814;18.270;2023-07-22T13:50:23;7.00;;;2.90;;
59093;SDS011;44880;52.814;18.270;2023-07-22T13:52:56;6.60;;;2.50;;
59093;SDS011;44880;52.814;18.270;2023-07-22T13:55:41;7.80;;;2.50;;
59093;SDS011;44880;52.814;18.270;2023-07-22T13:58:14;6.60;;;2.40;;
59093;SDS011;44880;52.814;18.270;2023-07-22T14:00:45;7.30;;;2.60;;
59093;SDS011;44880;52.814;18.270;2023-07-22T14:03:24;7.10;;;2.30;;
59093;SDS011;44880;52.814;18.270;2023-07-22T14:05:55;7.10;;;2.20;;
59093;SDS011;44880;52.814;18.270;2023-07-22T14:08:27;6.70;;;2.30;;
59093;SDS011;44880;52.814;18.270;2023-07-22T14:10:59;7.20;;;2.70;;
59093;SDS011;44880;52.814;18.270;2023-07-22T14:13:44;6.50;;;2.50;;
59093;SDS011;44880;52.814;18.270;2023-07-22T14:16:16;7.00;;;2.40;;
59093;SDS011;44880;52.814;18.270;2023-07-22T14:18:48;7.80;;;2.40;;
59093;SDS011;44880;52.814;18.270;2023-07-22T14:21:35;8.30;;;2.50;;
59093;SDS011;44880;52.814;18.270;2023-07-22T14:24:10;7.50;;;2.40;;
59093;SDS011;44880;52.814;18.270;2023-07-22T14:29:33;7.00;;;2.50;;
59093;SDS011;44880;52.814;18.270;2023-07-22T14:32:06;5.80;;;2.30;;
59093;SDS011;44880;52.814;18.270;2023-07-22T14:37:25;7.40;;;2.70;;
59093;SDS011;44880;52.814;18.270;2023-07-22T14:40:00;6.00;;;2.20;;
59093;SDS011;44880;52.814;18.270;2023-07-22T14:42:47;7.20;;;2.60;;
59093;SDS011;44880;52.814;18.270;2023-07-22T14:45:19;7.30;;;2.50;;
59093;SDS011;44880;52.814;18.270;2023-07-22T14:47:52;6.70;;;2.50;;
59093;SDS011;44880;52.814;18.270;2023-07-22T14:50:24;7.20;;;2.60;;
59093;SDS011;44880;52.814;18.270;2023-07-22T14:53:09;6.70;;;2.50;;
59093;SDS011;44880;52.814;18.270;2023-07-22T14:55:41;7.10;;;2.50;;
59093;SDS011;44880;52.814;18.270;2023-07-22T14:58:14;6.80;;;2.50;;
59093;SDS011;44880;52.814;18.270;2023-07-22T15:01:04;8.00;;;2.30;;
59093;SDS011;44880;52.814;18.270;2023-07-22T15:03:37;6.80;;;2.60;;
59093;SDS011;44880;52.814;18.270;2023-07-22T15:06:25;6.60;;;2.30;;
59093;SDS011;44880;52.814;18.270;2023-07-22T15:08:59;6.90;;;2.30;;
59093;SDS011;44880;52.814;18.270;2023-07-22T15:11:35;6.70;;;2.00;;
59093;SDS011;44880;52.814;18.270;2023-07-22T15:17:04;6.40;;;2.40;;
59093;SDS011;44880;52.814;18.270;2023-07-22T15:19:37;7.50;;;2.40;;
59093;SDS011;44880;52.814;18.270;2023-07-22T15:22:11;6.70;;;2.20;;
59093;SDS011;44880;52.814;18.270;2023-07-22T15:24:43;7.40;;;2.30;;
59093;SDS011;44880;52.814;18.270;2023-07-22T15:27:15;6.40;;;2.30;;
59093;SDS011;44880;52.814;18.270;2023-07-22T15:29:49;11.90;;;2.50;;
59093;SDS011;44880;52.814;18.270;2023-07-22T15:32:35;6.30;;;2.40;;
59093;SDS011;44880;52.814;18.270;2023-07-22T15:35:07;7.50;;;2.30;;
59093;SDS011;44880;52.814;18.270;2023-07-22T15:37:39;6.70;;;2.40;;
59093;SDS011;44880;52.814;18.270;2023-07-22T15:40:25;7.60;;;2.10;;
59093;SDS011;44880;52.814;18.270;2023-07-22T15:42:57;6.50;;;2.20;;
59093;SDS011;44880;52.814;18.270;2023-07-22T15:45:29;8.40;;;2.50;;
59093;SDS011;44880;52.814;18.270;2023-07-22T15:48:10;6.80;;;2.20;;
59093;SDS011;44880;52.814;18.270;2023-07-22T15:50:41;6.60;;;2.20;;
59093;SDS011;44880;52.814;18.270;2023-07-22T15:53:13;7.10;;;2.20;;
59093;SDS011;44880;52.814;18.270;2023-07-22T15:58:37;7.30;;;2.20;;
59093;SDS011;44880;52.814;18.270;2023-07-22T16:01:09;7.90;;;2.40;;
59093;SDS011;44880;52.814;18.270;2023-07-22T16:06:26;7.30;;;1.90;;
59093;SDS011;44880;52.814;18.270;2023-07-22T16:08:58;7.20;;;2.30;;
59093;SDS011;44880;52.814;18.270;2023-07-22T16:11:31;6.20;;;2.10;;
59093;SDS011;44880;52.814;18.270;2023-07-22T16:14:16;6.50;;;2.00;;
59093;SDS011;44880;52.814;18.270;2023-07-22T16:16:47;6.00;;;2.10;;
59093;SDS011;44880;52.814;18.270;2023-07-22T16:19:21;7.80;;;2.30;;
59093;SDS011;44880;52.814;18.270;2023-07-22T16:22:06;7.40;;;2.30;;
59093;SDS011;44880;52.814;18.270;2023-07-22T16:24:40;6.70;;;2.20;;
59093;SDS011;44880;52.814;18.270;2023-07-22T16:27:12;7.40;;;2.20;;
59093;SDS011;44880;52.814;18.270;2023-07-22T16:29:44;6.50;;;2.20;;
59093;SDS011;44880;52.814;18.270;2023-07-22T16:32:16;7.10;;;2.30;;
59093;SDS011;44880;52.814;18.270;2023-07-22T16:34:49;6.90;;;2.20;;
59093;SDS011;44880;52.814;18.270;2023-07-22T16:37:21;7.20;;;2.40;;
59093;SDS011;44880;52.814;18.270;2023-07-22T16:40:03;8.20;;;2.30;;
59093;SDS011;44880;52.814;18.270;2023-07-22T16:42:43;6.80;;;2.30;;
59093;SDS011;44880;52.814;18.270;2023-07-22T16:45:15;7.50;;;2.50;;
59093;SDS011;44880;52.814;18.270;2023-07-22T16:48:02;6.80;;;2.30;;
59093;SDS011;44880;52.814;18.270;2023-07-22T16:53:35;8.30;;;2.20;;
59093;SDS011;44880;52.814;18.270;2023-07-22T16:56:07;8.60;;;2.50;;
59093;SDS011;44880;52.814;18.270;2023-07-22T16:58:39;8.30;;;2.60;;
59093;SDS011;44880;52.814;18.270;2023-07-22T17:03:59;7.40;;;2.30;;
59093;SDS011;44880;52.814;18.270;2023-07-22T17:06:34;8.20;;;2.40;;
59093;SDS011;44880;52.814;18.270;2023-07-22T17:11:51;7.20;;;2.10;;
59093;SDS011;44880;52.814;18.270;2023-07-22T17:14:25;8.10;;;2.60;;
59093;SDS011;44880;52.814;18.270;2023-07-22T17:19:44;6.40;;;2.40;;
59093;SDS011;44880;52.814;18.270;2023-07-22T17:22:16;7.00;;;2.30;;
59093;SDS011;44880;52.814;18.270;2023-07-22T17:27:38;6.90;;;2.20;;
59093;SDS011;44880;52.814;18.270;2023-07-22T17:30:15;6.60;;;2.20;;
59093;SDS011;44880;52.814;18.270;2023-07-22T17:35:35;7.90;;;2.30;;
59093;SDS011;44880;52.814;18.270;2023-07-22T17:38:11;7.30;;;2.30;;
59093;SDS011;44880;52.814;18.270;2023-07-22T17:41:06;8.10;;;2.60;;
59093;SDS011;44880;52.814;18.270;2023-07-22T17:43:38;8.40;;;2.10;;
59093;SDS011;44880;52.814;18.270;2023-07-22T17:49:09;7.20;;;2.20;;
59093;SDS011;44880;52.814;18.270;2023-07-22T17:51:43;8.80;;;2.30;;
59093;SDS011;44880;52.814;18.270;2023-07-22T17:54:36;8.30;;;2.80;;
59093;SDS011;44880;52.814;18.270;2023-07-22T17:57:09;8.10;;;2.40;;
59093;SDS011;44880;52.814;18.270;2023-07-22T18:02:45;6.60;;;2.10;;
59093;SDS011;44880;52.814;18.270;2023-07-22T18:08:18;7.20;;;2.50;;
59093;SDS011;44880;52.814;18.270;2023-07-22T18:10:51;7.80;;;2.60;;
59093;SDS011;44880;52.814;18.270;2023-07-22T18:13:42;9.20;;;2.40;;
59093;SDS011;44880;52.814;18.270;2023-07-22T18:16:17;8.80;;;2.60;;
59093;SDS011;44880;52.814;18.270;2023-07-22T18:19:04;7.30;;;2.50;;
59093;SDS011;44880;52.814;18.270;2023-07-22T18:21:42;7.20;;;2.00;;